Bakaly, Russia
Current Conditions -  °F | °C
As of 11:30 AM on Thursday 27 Nov 2014 (Local Time) from UWKE Reporting Station
Haze Haze  
Wind Chill: 15°   Ceiling: 200
Heat Index: 21°   Visibility: 0.81mi
Dew Point: 19°   Wind: 4mph
Humidity: 93%   Direction: 220°SW
Pressure: 30.42"   Gusts: NA
Location:  55.18°N, 53.8°E
Report Text: UWKE 270630Z 22002MPS 1300 BR OVC002 M06/M07 Q1030 TEMPO 0700FZFG VV002 RMK QBB080 QFE755/1007 21420534
Loading
Personal Weather Stations






























Interactive Weather Map New forecast layout! Learn more

10-Day Weather Forecast

Advertisements
Track Severe Weather on mobile